createdAt,value
2023-03-27T00:00:42.574Z,90635.31
2023-03-27T00:03:10.981Z,90630.41
2023-03-27T00:05:37.660Z,90628.13
2023-03-27T00:08:04.986Z,90630.06
2023-03-27T00:10:32.151Z,90629.53
2023-03-27T00:12:59.148Z,90617.19
2023-03-27T00:15:25.908Z,90608.28
2023-03-27T00:17:52.813Z,90596.94
2023-03-27T00:20:23.345Z,90590.56
2023-03-27T00:22:55.361Z,90592.00
2023-03-27T00:25:29.130Z,90587.75
2023-03-27T00:27:59.033Z,90590.19
2023-03-27T00:30:26.430Z,90590.88
2023-03-27T00:32:55.984Z,90576.81
2023-03-27T00:35:23.620Z,90579.97
2023-03-27T00:37:50.656Z,90585.22
2023-03-27T00:40:20.414Z,90586.88
2023-03-27T00:42:48.485Z,90579.81
2023-03-27T00:45:28.796Z,90571.59
2023-03-27T00:47:58.202Z,90571.03
2023-03-27T00:50:26.958Z,90568.53
2023-03-27T00:52:57.091Z,90563.66
2023-03-27T00:55:23.750Z,90568.88
2023-03-27T00:57:52.911Z,90572.34
2023-03-27T01:00:20.114Z,90565.47
2023-03-27T01:02:47.841Z,90561.84
2023-03-27T01:05:15.593Z,90557.97
2023-03-27T01:08:01.329Z,90552.25
2023-03-27T01:10:53.474Z,90551.53
2023-03-27T01:13:50.618Z,90545.94
2023-03-27T01:16:55.741Z,90537.25
2023-03-27T01:19:29.188Z,90547.03
2023-03-27T01:21:58.714Z,90533.19
2023-03-27T01:24:43.689Z,90535.31
2023-03-27T01:27:37.840Z,90531.16
2023-03-27T01:30:12.796Z,90528.00
2023-03-27T01:32:42.483Z,90528.56
2023-03-27T01:35:18.063Z,90520.47
2023-03-27T01:38:14.777Z,90520.09
2023-03-27T01:41:26.105Z,90522.78
2023-03-27T01:44:15.507Z,90514.00
2023-03-27T01:46:57.705Z,90509.50
2023-03-27T01:49:40.103Z,90502.72
2023-03-27T01:52:22.460Z,90494.09
2023-03-27T01:54:55.788Z,90513.75
2023-03-27T01:57:25.408Z,90498.31
2023-03-27T02:00:18.643Z,90508.25
2023-03-27T02:02:48.457Z,90495.22
2023-03-27T02:05:40.417Z,90496.78
2023-03-27T02:08:15.813Z,90489.69
2023-03-27T02:10:43.793Z,90483.88
2023-03-27T02:13:18.396Z,90484.75
2023-03-27T02:15:45.016Z,90482.63
2023-03-27T02:18:12.946Z,90473.44
2023-03-27T02:20:40.201Z,90472.88
2023-03-27T02:23:07.770Z,90477.22
2023-03-27T02:25:39.808Z,90466.78
2023-03-27T02:28:22.820Z,90467.06
2023-03-27T02:31:10.911Z,90467.25
2023-03-27T02:34:00.924Z,90457.13
2023-03-27T02:36:49.152Z,90453.47
2023-03-27T02:39:34.167Z,90445.91
2023-03-27T02:42:21.269Z,90434.84
2023-03-27T02:45:13.916Z,90438.56
2023-03-27T02:48:08.407Z,90431.19
2023-03-27T02:50:53.837Z,90418.00
2023-03-27T02:53:21.942Z,90412.16
2023-03-27T02:55:51.717Z,90415.81
2023-03-27T02:58:21.952Z,90416.28
2023-03-27T03:00:49.103Z,90405.88
2023-03-27T03:03:53.966Z,90400.28
2023-03-27T03:06:21.293Z,90395.25
2023-03-27T03:08:48.617Z,90401.44
2023-03-27T03:11:15.829Z,90390.69
2023-03-27T03:13:42.487Z,90386.41
2023-03-27T03:16:10.129Z,90386.84
2023-03-27T03:18:37.004Z,90384.81
2023-03-27T03:21:04.836Z,90367.19
2023-03-27T03:23:31.998Z,90379.75
2023-03-27T03:25:58.774Z,90376.28
2023-03-27T03:28:28.446Z,90372.75
2023-03-27T03:30:55.609Z,90376.59
2023-03-27T03:33:22.544Z,90366.81
2023-03-27T03:35:50.301Z,90349.47
2023-03-27T03:38:25.108Z,90350.72
2023-03-27T03:40:53.614Z,90350.63
2023-03-27T03:43:21.921Z,90355.97
2023-03-27T03:45:48.976Z,90347.56
2023-03-27T03:48:16.336Z,90360.53
2023-03-27T03:50:44.366Z,90367.22
2023-03-27T03:53:11.580Z,90357.59
2023-03-27T03:55:38.163Z,90358.47
2023-03-27T03:58:05.006Z,90356.81
2023-03-27T04:00:34.602Z,90347.97
2023-03-27T04:03:01.622Z,90347.97
2023-03-27T04:05:28.233Z,90353.63
2023-03-27T04:07:54.979Z,90351.25
2023-03-27T04:10:21.676Z,90350.09
2023-03-27T04:12:49.240Z,90351.53
2023-03-27T04:15:16.570Z,90353.63
2023-03-27T04:17:43.567Z,90356.81
2023-03-27T04:20:12.834Z,90355.28
2023-03-27T04:22:46.462Z,90357.78
2023-03-27T04:25:14.192Z,90359.56
2023-03-27T04:27:41.329Z,90349.66
2023-03-27T04:30:10.782Z,90338.22
2023-03-27T04:32:37.490Z,90337.03
2023-03-27T04:35:04.851Z,90335.13
2023-03-27T04:37:31.521Z,90349.00
2023-03-27T04:39:58.589Z,90330.16
2023-03-27T04:42:25.372Z,90329.81
2023-03-27T04:44:53.090Z,90342.75
2023-03-27T04:47:20.513Z,90327.44
2023-03-27T04:49:50.817Z,90345.00
2023-03-27T04:52:18.124Z,90338.50
2023-03-27T04:54:45.014Z,90329.38
2023-03-27T04:57:11.996Z,90340.50
2023-03-27T04:59:38.659Z,90337.41
2023-03-27T05:02:05.624Z,90344.34
2023-03-27T05:05:36.046Z,90338.44
2023-03-27T05:08:02.921Z,90330.13
2023-03-27T05:10:29.679Z,90327.88
2023-03-27T05:12:58.385Z,90333.06
2023-03-27T05:15:25.686Z,90328.69
2023-03-27T05:17:55.939Z,90323.53
2023-03-27T05:20:22.705Z,90331.00
2023-03-27T05:22:49.623Z,90318.56
2023-03-27T05:25:16.298Z,90330.75
2023-03-27T05:27:47.219Z,90315.41
2023-03-27T05:30:16.092Z,90309.78
2023-03-27T05:32:52.138Z,90317.28
2023-03-27T05:35:20.614Z,90315.19
2023-03-27T05:37:48.158Z,90323.47
2023-03-27T05:40:15.552Z,90299.38
2023-03-27T05:42:46.018Z,90291.69
2023-03-27T05:45:13.050Z,90280.44
2023-03-27T05:47:53.317Z,90280.19
2023-03-27T05:50:21.388Z,90272.25
2023-03-27T05:52:48.025Z,90265.56
2023-03-27T05:55:17.768Z,90257.66
2023-03-27T05:57:44.450Z,90254.34
2023-03-27T06:00:13.980Z,90239.94
2023-03-27T06:02:43.987Z,90220.09
2023-03-27T06:05:13.419Z,90210.81
2023-03-27T06:07:43.021Z,90198.94
2023-03-27T06:10:13.803Z,90192.50
2023-03-27T06:12:41.605Z,90171.34
2023-03-27T06:15:09.411Z,90170.31
2023-03-27T06:17:38.044Z,90163.78
2023-03-27T06:20:15.446Z,90168.06
2023-03-27T06:22:46.880Z,90155.03
2023-03-27T06:25:14.118Z,90138.75
2023-03-27T06:27:45.426Z,90120.50
2023-03-27T06:30:13.271Z,90110.25
2023-03-27T06:32:47.631Z,90111.00
2023-03-27T06:35:14.816Z,90082.88
2023-03-27T06:37:42.420Z,90077.69
2023-03-27T06:40:10.275Z,90078.63
2023-03-27T06:42:37.326Z,90063.16
2023-03-27T06:45:05.570Z,90050.03
2023-03-27T06:47:36.324Z,90048.06
2023-03-27T06:50:07.571Z,90046.47
2023-03-27T06:52:34.268Z,90042.28
2023-03-27T06:55:00.905Z,90045.97
2023-03-27T06:57:27.527Z,90044.03
2023-03-27T06:59:54.132Z,90046.88
2023-03-27T07:02:20.741Z,90047.47
2023-03-27T07:04:57.674Z,90039.00
2023-03-27T07:07:24.707Z,90034.44
2023-03-27T07:09:53.694Z,90033.53
2023-03-27T07:12:20.289Z,90027.84
2023-03-27T07:14:46.955Z,90028.22
2023-03-27T07:17:13.666Z,90028.16
2023-03-27T07:19:40.393Z,90043.31
2023-03-27T07:22:06.978Z,90043.28
2023-03-27T07:24:33.960Z,90045.69
2023-03-27T07:27:00.591Z,90035.31
2023-03-27T07:29:27.220Z,90046.00
2023-03-27T07:31:58.449Z,90054.00
2023-03-27T07:34:27.149Z,90064.25
2023-03-27T07:36:53.821Z,90066.63
2023-03-27T07:39:20.617Z,90082.38
2023-03-27T07:41:47.266Z,90097.53
2023-03-27T07:44:13.848Z,90097.25
2023-03-27T07:46:41.279Z,90100.72
2023-03-27T07:49:08.759Z,90098.28
2023-03-27T07:51:35.545Z,90092.63
2023-03-27T07:54:04.446Z,90090.91
2023-03-27T07:56:34.931Z,90082.13
2023-03-27T07:59:01.673Z,90083.00
2023-03-27T08:01:28.591Z,90081.47
2023-03-27T08:03:55.665Z,90073.88
2023-03-27T08:06:22.399Z,90075.97
2023-03-27T08:08:50.927Z,90057.59
2023-03-27T08:11:29.699Z,90053.44
2023-03-27T08:13:57.245Z,90066.16
2023-03-27T08:16:27.850Z,90069.91
2023-03-27T08:18:54.730Z,90073.66
2023-03-27T08:21:23.385Z,90065.34
2023-03-27T08:23:50.041Z,90065.16
2023-03-27T08:26:16.626Z,90060.38
2023-03-27T08:28:43.657Z,90053.75
2023-03-27T08:31:13.134Z,90054.47
2023-03-27T08:33:40.038Z,90033.28
2023-03-27T08:36:10.281Z,90039.47
2023-03-27T08:38:39.565Z,90030.66
2023-03-27T08:41:06.788Z,90020.22
2023-03-27T08:43:39.165Z,90026.38
2023-03-27T08:46:17.009Z,90024.66
2023-03-27T08:49:05.639Z,90022.81
2023-03-27T08:51:34.452Z,90036.09
2023-03-27T08:54:08.358Z,90030.44
2023-03-27T08:56:34.982Z,90031.81
2023-03-27T08:59:01.802Z,90030.56
2023-03-27T09:01:29.592Z,90038.63
2023-03-27T09:04:01.904Z,90039.88
2023-03-27T09:06:52.879Z,90037.97
2023-03-27T09:09:38.687Z,90036.13
2023-03-27T09:12:18.845Z,90030.00
2023-03-27T09:14:48.487Z,90026.63
2023-03-27T09:17:21.829Z,90023.81
2023-03-27T09:20:08.828Z,90009.41
2023-03-27T09:22:40.939Z,89996.34
2023-03-27T09:25:24.906Z,89990.38
2023-03-27T09:27:51.887Z,89982.22
2023-03-27T09:30:26.653Z,89993.56
2023-03-27T09:32:56.070Z,89985.53
2023-03-27T09:35:23.356Z,89988.44
2023-03-27T09:37:54.376Z,89981.13
2023-03-27T09:40:44.567Z,89980.88
2023-03-27T09:43:20.855Z,89992.72
2023-03-27T09:45:49.082Z,90001.28
2023-03-27T09:48:36.755Z,89981.41
2023-03-27T09:51:05.260Z,89981.31
2023-03-27T09:53:32.389Z,89989.16
2023-03-27T09:56:05.445Z,89983.53
2023-03-27T09:58:43.941Z,89967.78
2023-03-27T10:01:34.539Z,89954.94
2023-03-27T10:04:01.797Z,89956.06
2023-03-27T10:06:29.594Z,89954.56
2023-03-27T10:08:57.347Z,89955.88
2023-03-27T10:11:27.792Z,89956.31
2023-03-27T10:13:54.484Z,89956.56
2023-03-27T10:16:21.867Z,89953.56
2023-03-27T10:18:53.648Z,89948.44
2023-03-27T10:21:38.879Z,89961.09
2023-03-27T10:24:07.404Z,89951.41
2023-03-27T10:26:35.097Z,89932.16
2023-03-27T10:29:13.816Z,89935.59
2023-03-27T10:31:40.534Z,89936.91
2023-03-27T10:34:08.299Z,89933.31
2023-03-27T10:36:36.655Z,89925.72
2023-03-27T10:39:11.741Z,89921.09
2023-03-27T10:41:38.404Z,89935.69
2023-03-27T10:44:07.192Z,89923.16
2023-03-27T10:46:38.674Z,89925.84
2023-03-27T10:49:30.265Z,89924.66
2023-03-27T10:52:50.490Z,89906.75
2023-03-27T10:55:24.891Z,89886.56
2023-03-27T10:57:53.444Z,89889.25
2023-03-27T11:00:41.071Z,89888.59
2023-03-27T11:03:48.807Z,89876.78
2023-03-27T11:06:16.889Z,89877.91
2023-03-27T11:09:16.198Z,89882.91
2023-03-27T11:11:46.549Z,89884.25
2023-03-27T11:14:39.309Z,89886.56
2023-03-27T11:17:06.558Z,89906.94
2023-03-27T11:19:48.565Z,89901.34
2023-03-27T11:22:23.830Z,89906.72
2023-03-27T11:24:56.141Z,89903.41
2023-03-27T11:27:32.684Z,89923.25
2023-03-27T11:30:08.536Z,89913.00
2023-03-27T11:33:07.042Z,89928.25
2023-03-27T11:35:39.285Z,89909.50
2023-03-27T11:38:17.133Z,89931.38
2023-03-27T11:40:45.835Z,89936.31
2023-03-27T11:43:12.967Z,89941.13
2023-03-27T11:45:58.135Z,89956.44
2023-03-27T11:48:33.936Z,89959.44
2023-03-27T11:51:10.832Z,89952.41
2023-03-27T11:53:46.609Z,89944.78
2023-03-27T11:56:39.908Z,89947.81
2023-03-27T11:59:28.379Z,89948.16
2023-03-27T12:02:25.587Z,89943.75
2023-03-27T12:05:05.506Z,89952.03
2023-03-27T12:07:47.658Z,89963.91
2023-03-27T12:10:31.955Z,89958.97
2023-03-27T12:13:02.960Z,89958.31
2023-03-27T12:15:39.377Z,89980.38
2023-03-27T12:18:54.466Z,89988.03
2023-03-27T12:21:43.842Z,90034.69
2023-03-27T12:24:58.936Z,90038.41
2023-03-27T12:27:44.890Z,90051.78
2023-03-27T12:30:17.528Z,90049.91
2023-03-27T12:33:38.406Z,90042.44
2023-03-27T12:36:06.591Z,90072.16
2023-03-27T12:38:37.083Z,90066.31
2023-03-27T12:41:23.385Z,90087.69
2023-03-27T12:43:57.538Z,90083.06
2023-03-27T12:46:24.144Z,90089.72
2023-03-27T12:48:51.654Z,90123.16
2023-03-27T12:51:19.946Z,90140.72
2023-03-27T12:53:48.404Z,90134.78
2023-03-27T12:56:18.017Z,90145.41
2023-03-27T12:58:45.772Z,90141.25
2023-03-27T13:01:24.231Z,90143.44
2023-03-27T13:04:14.635Z,90135.44
2023-03-27T13:06:51.038Z,90116.75
2023-03-27T13:09:47.033Z,90120.13
2023-03-27T13:12:26.511Z,90142.47
2023-03-27T13:15:02.211Z,90116.69
2023-03-27T13:17:49.385Z,90096.59
2023-03-27T13:20:24.921Z,90095.75
2023-03-27T13:23:18.218Z,90087.66
2023-03-27T13:25:47.575Z,90073.13
2023-03-27T13:28:25.173Z,90061.63
2023-03-27T13:30:56.534Z,90055.66
2023-03-27T13:33:24.366Z,90051.09
2023-03-27T13:36:06.796Z,90037.47
2023-03-27T13:38:52.768Z,90038.22
2023-03-27T13:41:44.265Z,90023.25
2023-03-27T13:44:48.157Z,90060.94
2023-03-27T13:47:36.377Z,90038.19
2023-03-27T13:50:35.005Z,90004.88
2023-03-27T13:53:22.370Z,90007.78
2023-03-27T13:56:23.153Z,90003.28
2023-03-27T13:58:52.939Z,90013.00
2023-03-27T14:01:42.232Z,89985.31
2023-03-27T14:04:18.263Z,89966.59
2023-03-27T14:06:59.849Z,89948.75
2023-03-27T14:09:53.363Z,89951.81
2023-03-27T14:12:35.476Z,89950.28
2023-03-27T14:15:06.937Z,89938.09
2023-03-27T14:18:11.996Z,89899.66
2023-03-27T14:20:45.458Z,89899.75
2023-03-27T14:23:23.445Z,89896.94
2023-03-27T14:26:19.892Z,89907.50
2023-03-27T14:28:59.535Z,89920.13
2023-03-27T14:31:26.988Z,89904.88
2023-03-27T14:34:30.327Z,89902.03
2023-03-27T14:37:22.651Z,89910.31
2023-03-27T14:39:59.419Z,89929.00
2023-03-27T14:42:32.639Z,89910.34
2023-03-27T14:45:33.178Z,89919.28
2023-03-27T14:48:05.105Z,89904.22
2023-03-27T14:50:31.901Z,89908.75
2023-03-27T14:52:58.623Z,89915.06
2023-03-27T14:55:29.888Z,89914.59
2023-03-27T14:57:58.747Z,89915.03
2023-03-27T15:00:25.791Z,89922.97
2023-03-27T15:02:53.365Z,89923.63
2023-03-27T15:05:22.594Z,89912.03
2023-03-27T15:07:50.570Z,89916.41
2023-03-27T15:10:20.878Z,89907.94
2023-03-27T15:12:47.800Z,89899.69
2023-03-27T15:15:39.579Z,89889.19
2023-03-27T15:18:11.926Z,89886.44
2023-03-27T15:20:38.617Z,89869.22
2023-03-27T15:23:19.273Z,89879.53
2023-03-27T15:25:56.444Z,89869.28
2023-03-27T15:28:38.129Z,89857.75
2023-03-27T15:31:05.026Z,89853.53
2023-03-27T15:33:37.724Z,89853.25
2023-03-27T15:36:06.524Z,89851.53
2023-03-27T15:38:34.330Z,89855.97
2023-03-27T15:41:27.151Z,89861.13
2023-03-27T15:44:09.527Z,89854.38
2023-03-27T15:46:49.062Z,89849.59
2023-03-27T15:49:20.330Z,89843.25
2023-03-27T15:51:46.955Z,89853.94
2023-03-27T15:54:27.576Z,89862.00
2023-03-27T15:57:10.555Z,89879.41
2023-03-27T15:59:52.234Z,89884.19
2023-03-27T16:02:19.831Z,89891.59
2023-03-27T16:04:53.475Z,89894.28
2023-03-27T16:07:43.352Z,89905.50
2023-03-27T16:10:10.201Z,89903.97
2023-03-27T16:12:39.769Z,89911.72
2023-03-27T16:15:08.385Z,89900.91
2023-03-27T16:17:41.326Z,89907.66
2023-03-27T16:20:12.608Z,89908.19
2023-03-27T16:22:39.466Z,89901.91
2023-03-27T16:25:08.698Z,89901.88
2023-03-27T16:27:42.191Z,89905.44
2023-03-27T16:30:10.315Z,89896.88
2023-03-27T16:32:37.120Z,89904.66
2023-03-27T16:35:04.019Z,89914.50
2023-03-27T16:37:30.702Z,89913.34
2023-03-27T16:39:58.111Z,89913.13
2023-03-27T16:42:26.355Z,89907.84
2023-03-27T16:44:53.360Z,89914.28
2023-03-27T16:47:20.644Z,89921.03
2023-03-27T16:49:56.259Z,89923.38
2023-03-27T16:52:27.344Z,89920.78
2023-03-27T16:54:54.345Z,89933.19
2023-03-27T16:57:21.420Z,89953.00
2023-03-27T16:59:48.049Z,89958.66
2023-03-27T17:02:14.671Z,89961.81
2023-03-27T17:04:43.801Z,89962.81
2023-03-27T17:07:10.748Z,89973.19
2023-03-27T17:09:37.937Z,89958.34
2023-03-27T17:12:04.714Z,89964.50
2023-03-27T17:14:31.428Z,89967.38
2023-03-27T17:16:58.233Z,89970.72
2023-03-27T17:19:24.934Z,89969.91
2023-03-27T17:21:51.619Z,89966.59
2023-03-27T17:24:19.945Z,89964.94
2023-03-27T17:26:46.710Z,89987.34
2023-03-27T17:29:13.555Z,89986.09
2023-03-27T17:31:40.422Z,89992.84
2023-03-27T17:34:07.451Z,89991.00
2023-03-27T17:36:41.504Z,89996.16
2023-03-27T17:39:11.747Z,89998.84
2023-03-27T17:41:38.432Z,89994.88
2023-03-27T17:44:07.370Z,89998.78
2023-03-27T17:46:34.517Z,90006.06
2023-03-27T17:49:01.416Z,90000.22
2023-03-27T17:51:28.108Z,89999.69
2023-03-27T17:53:54.867Z,90004.88
2023-03-27T17:56:21.589Z,90011.81
2023-03-27T17:58:48.722Z,90013.50
2023-03-27T18:01:17.623Z,90010.78
2023-03-27T18:03:44.620Z,90009.13
2023-03-27T18:06:11.355Z,90014.13
2023-03-27T18:08:37.982Z,90013.63
2023-03-27T18:11:09.046Z,90012.47
2023-03-27T18:13:35.996Z,90009.22
2023-03-27T18:16:06.765Z,90017.25
2023-03-27T18:18:34.121Z,90018.56
2023-03-27T18:21:01.682Z,90017.25
2023-03-27T18:23:28.438Z,90019.31
2023-03-27T18:25:55.787Z,90017.69
2023-03-27T18:28:23.912Z,90015.88
2023-03-27T18:31:00.808Z,90015.59
2023-03-27T18:33:28.149Z,90024.75
2023-03-27T18:35:56.184Z,90027.97
2023-03-27T18:38:24.073Z,90023.53
2023-03-27T18:40:50.858Z,90024.31
2023-03-27T18:43:17.587Z,90014.66
2023-03-27T18:45:44.296Z,90008.41
2023-03-27T18:48:11.057Z,90011.59
2023-03-27T18:50:37.811Z,90018.34
2023-03-27T18:53:04.809Z,90026.16
2023-03-27T18:55:32.390Z,90031.81
2023-03-27T18:57:59.037Z,90028.41
2023-03-27T19:00:26.174Z,90031.75
2023-03-27T19:02:52.936Z,90022.38
2023-03-27T19:05:19.773Z,90035.53
2023-03-27T19:07:46.902Z,90032.53
2023-03-27T19:10:14.106Z,90024.34
2023-03-27T19:12:40.893Z,90035.13
2023-03-27T19:15:19.392Z,90039.41
2023-03-27T19:17:49.044Z,90034.63
2023-03-27T19:20:15.724Z,90041.44
2023-03-27T19:22:42.440Z,90047.13
2023-03-27T19:25:09.651Z,90049.28
2023-03-27T19:27:38.605Z,90062.69
2023-03-27T19:30:07.440Z,90077.16
2023-03-27T19:32:34.168Z,90095.28
2023-03-27T19:35:01.193Z,90089.31
2023-03-27T19:37:29.727Z,90083.75
2023-03-27T19:39:56.436Z,90089.38
2023-03-27T19:42:23.023Z,90081.53
2023-03-27T19:44:49.708Z,90082.03
2023-03-27T19:47:16.383Z,90094.47
2023-03-27T19:49:43.124Z,90102.47
2023-03-27T19:52:09.806Z,90105.94
2023-03-27T19:54:36.530Z,90109.91
2023-03-27T19:57:03.402Z,90108.91
2023-03-27T19:59:31.308Z,90115.19
2023-03-27T20:01:58.743Z,90113.25
2023-03-27T20:04:25.414Z,90130.19
2023-03-27T20:06:52.168Z,90118.59
2023-03-27T20:09:19.144Z,90125.03
2023-03-27T20:11:46.715Z,90128.25
2023-03-27T20:14:13.466Z,90127.78
2023-03-27T20:16:40.253Z,90130.38
2023-03-27T20:19:07.142Z,90124.56
2023-03-27T20:21:37.627Z,90115.97
2023-03-27T20:24:05.754Z,90120.56
2023-03-27T20:26:39.000Z,90123.66
2023-03-27T20:29:07.519Z,90125.31
2023-03-27T20:31:34.291Z,90134.50
2023-03-27T20:34:01.181Z,90135.13
2023-03-27T20:36:28.198Z,90138.66
2023-03-27T20:38:56.436Z,90145.34
2023-03-27T20:41:23.063Z,90146.94
2023-03-27T20:43:50.954Z,90142.03
2023-03-27T20:46:18.051Z,90150.44
2023-03-27T20:48:53.666Z,90143.09
2023-03-27T20:51:24.405Z,90152.78
2023-03-27T20:53:56.169Z,90160.53
2023-03-27T20:56:23.157Z,90158.69
2023-03-27T20:58:49.970Z,90153.44
2023-03-27T21:01:19.308Z,90154.84
2023-03-27T21:03:49.860Z,90166.94
2023-03-27T21:06:18.869Z,90157.59
2023-03-27T21:08:46.053Z,90165.19
2023-03-27T21:11:13.339Z,90168.47
2023-03-27T21:13:40.375Z,90175.16
2023-03-27T21:16:07.414Z,90188.34
2023-03-27T21:18:34.280Z,90189.72
2023-03-27T21:21:01.104Z,90194.16
2023-03-27T21:23:27.734Z,90197.50
2023-03-27T21:25:55.317Z,90196.91
2023-03-27T21:28:22.013Z,90202.53
2023-03-27T21:30:48.728Z,90197.78
2023-03-27T21:33:16.410Z,90198.69
2023-03-27T21:35:45.811Z,90204.59
2023-03-27T21:38:13.554Z,90200.59
2023-03-27T21:40:40.430Z,90204.25
2023-03-27T21:43:08.409Z,90206.06
2023-03-27T21:45:35.820Z,90211.69
2023-03-27T21:48:02.510Z,90200.75
2023-03-27T21:50:29.192Z,90215.56
2023-03-27T21:52:55.931Z,90214.84
2023-03-27T21:55:22.588Z,90211.75
2023-03-27T21:57:49.459Z,90207.78
2023-03-27T22:00:16.332Z,90214.91
2023-03-27T22:02:43.117Z,90212.47
2023-03-27T22:05:10.052Z,90215.19
2023-03-27T22:07:36.791Z,90225.16
2023-03-27T22:10:06.418Z,90225.69
2023-03-27T22:12:36.740Z,90226.88
2023-03-27T22:15:03.957Z,90220.78
2023-03-27T22:17:30.632Z,90230.09
2023-03-27T22:19:57.714Z,90223.09
2023-03-27T22:22:24.957Z,90220.63
2023-03-27T22:24:51.633Z,90224.59
2023-03-27T22:27:18.384Z,90229.25
2023-03-27T22:29:45.198Z,90226.50
2023-03-27T22:32:11.818Z,90224.03
2023-03-27T22:34:38.588Z,90225.38
2023-03-27T22:37:06.593Z,90236.66
2023-03-27T22:39:33.363Z,90241.84
2023-03-27T22:42:00.063Z,90245.28
2023-03-27T22:44:26.889Z,90241.97
2023-03-27T22:46:53.634Z,90246.78
2023-03-27T22:49:20.412Z,90245.53
2023-03-27T22:51:47.007Z,90254.09
2023-03-27T22:54:13.586Z,90251.16
2023-03-27T22:56:40.303Z,90249.16
2023-03-27T22:59:07.053Z,90247.59
2023-03-27T23:01:33.700Z,90245.97
2023-03-27T23:04:00.407Z,90255.06
2023-03-27T23:06:27.080Z,90258.09
2023-03-27T23:08:53.756Z,90267.31
2023-03-27T23:11:20.666Z,90269.75
2023-03-27T23:13:47.418Z,90278.97
2023-03-27T23:16:14.141Z,90274.94
2023-03-27T23:18:40.869Z,90279.72
2023-03-27T23:21:09.298Z,90281.41
2023-03-27T23:23:36.834Z,90285.69
2023-03-27T23:26:04.295Z,90287.00
2023-03-27T23:28:32.987Z,90301.06
2023-03-27T23:31:21.455Z,90298.13
2023-03-27T23:33:48.961Z,90291.66
2023-03-27T23:36:17.450Z,90304.09
2023-03-27T23:38:44.156Z,90310.66
2023-03-27T23:41:14.056Z,90314.34
2023-03-27T23:43:40.701Z,90316.53
2023-03-27T23:46:13.346Z,90319.84
2023-03-27T23:48:40.986Z,90323.56
2023-03-27T23:51:08.119Z,90333.56
2023-03-27T23:53:36.408Z,90327.63
2023-03-27T23:56:03.385Z,90336.09
2023-03-27T23:58:32.559Z,90346.63
